sensor_id;sensor_type;location;lat;lon;timestamp;pressure;altitude;pressure_sealevel;temperature;humidity
9419;BME280;4748;50.802;7.132;2023-06-14T03:31:29;100786.53;;;16.48;100.00
9419;BME280;4748;50.802;7.132;2023-06-14T03:33:58;100784.66;;;16.49;100.00
9419;BME280;4748;50.802;7.132;2023-06-14T03:36:23;100788.72;;;16.51;100.00
9419;BME280;4748;50.802;7.132;2023-06-14T03:38:48;100781.47;;;16.52;100.00
9419;BME280;4748;50.802;7.132;2023-06-14T03:41:15;100791.75;;;16.55;100.00
9419;BME280;4748;50.802;7.132;2023-06-14T03:43:40;100793.94;;;16.58;100.00
9419;BME280;4748;50.802;7.132;2023-06-14T03:46:05;100793.97;;;16.63;100.00
9419;BME280;4748;50.802;7.132;2023-06-14T03:48:31;100785.88;;;16.63;100.00
9419;BME280;4748;50.802;7.132;2023-06-14T03:50:56;100793.78;;;16.69;100.00
9419;BME280;4748;50.802;7.132;2023-06-14T03:53:22;100797.38;;;16.75;100.00
9419;BME280;4748;50.802;7.132;2023-06-14T03:55:52;100797.31;;;16.70;100.00
9419;BME280;4748;50.802;7.132;2023-06-14T03:58:19;100801.44;;;16.77;100.00
9419;BME280;4748;50.802;7.132;2023-06-14T04:00:44;100804.19;;;16.82;100.00
9419;BME280;4748;50.802;7.132;2023-06-14T04:03:10;100796.66;;;16.84;100.00
9419;BME280;4748;50.802;7.132;2023-06-14T04:05:38;100805.31;;;16.86;100.00
9419;BME280;4748;50.802;7.132;2023-06-14T04:08:07;100808.38;;;16.94;100.00
9419;BME280;4748;50.802;7.132;2023-06-14T04:10:34;100818.66;;;16.97;100.00
9419;BME280;4748;50.802;7.132;2023-06-14T04:12:59;100820.66;;;17.07;100.00
9419;BME280;4748;50.802;7.132;2023-06-14T04:15:24;100825.28;;;17.11;100.00
9419;BME280;4748;50.802;7.132;2023-06-14T04:17:50;100825.75;;;17.03;100.00
9419;BME280;4748;50.802;7.132;2023-06-14T04:20:16;100822.00;;;17.09;100.00
9419;BME280;4748;50.802;7.132;2023-06-14T04:22:42;100836.13;;;17.11;100.00
9419;BME280;4748;50.802;7.132;2023-06-14T04:25:08;100839.81;;;17.27;100.00
9419;BME280;4748;50.802;7.132;2023-06-14T04:27:33;100837.88;;;17.63;100.00
9419;BME280;4748;50.802;7.132;2023-06-14T04:30:02;100839.41;;;18.37;100.00
9419;BME280;4748;50.802;7.132;2023-06-14T04:32:27;100838.13;;;18.64;100.00
9419;BME280;4748;50.802;7.132;2023-06-14T04:34:55;100839.53;;;18.71;100.00
9419;BME280;4748;50.802;7.132;2023-06-14T04:37:21;100842.78;;;18.78;99.91
9419;BME280;4748;50.802;7.132;2023-06-14T04:39:48;100841.97;;;18.73;100.00
9419;BME280;4748;50.802;7.132;2023-06-14T04:42:13;100847.66;;;18.71;100.00
9419;BME280;4748;50.802;7.132;2023-06-14T04:44:41;100849.56;;;18.76;100.00
9419;BME280;4748;50.802;7.132;2023-06-14T04:47:06;100852.03;;;18.87;100.00
9419;BME280;4748;50.802;7.132;2023-06-14T04:49:32;100856.91;;;18.95;100.00
9419;BME280;4748;50.802;7.132;2023-06-14T04:51:59;100862.09;;;19.01;100.00
9419;BME280;4748;50.802;7.132;2023-06-14T04:54:26;100867.28;;;19.13;99.25
9419;BME280;4748;50.802;7.132;2023-06-14T04:56:52;100861.59;;;19.24;96.74
9419;BME280;4748;50.802;7.132;2023-06-14T04:59:18;100863.25;;;19.25;96.63
9419;BME280;4748;50.802;7.132;2023-06-14T05:01:44;100868.38;;;19.32;96.33
9419;BME280;4748;50.802;7.132;2023-06-14T05:04:16;100858.06;;;19.48;93.95
9419;BME280;4748;50.802;7.132;2023-06-14T05:06:42;100856.69;;;19.71;92.32
9419;BME280;4748;50.802;7.132;2023-06-14T05:09:10;100865.38;;;19.73;90.66
9419;BME280;4748;50.802;7.132;2023-06-14T05:11:35;100862.66;;;19.78;90.46
9419;BME280;4748;50.802;7.132;2023-06-14T05:14:01;100863.50;;;19.73;90.30
9419;BME280;4748;50.802;7.132;2023-06-14T05:16:26;100871.91;;;19.82;89.85
9419;BME280;4748;50.802;7.132;2023-06-14T05:18:54;100875.16;;;19.74;88.44
9419;BME280;4748;50.802;7.132;2023-06-14T05:21:20;100877.06;;;19.88;88.09
9419;BME280;4748;50.802;7.132;2023-06-14T05:23:45;100873.25;;;19.99;89.03
9419;BME280;4748;50.802;7.132;2023-06-14T05:26:11;100866.16;;;20.13;87.36
9419;BME280;4748;50.802;7.132;2023-06-14T05:28:36;100873.72;;;20.26;86.33
9419;BME280;4748;50.802;7.132;2023-06-14T05:31:02;100869.56;;;20.38;84.36
9419;BME280;4748;50.802;7.132;2023-06-14T05:33:27;100866.41;;;20.21;84.92
9419;BME280;4748;50.802;7.132;2023-06-14T05:35:52;100865.97;;;20.57;84.18
9419;BME280;4748;50.802;7.132;2023-06-14T05:38:18;100874.31;;;20.81;81.44
9419;BME280;4748;50.802;7.132;2023-06-14T05:40:43;100877.41;;;21.07;80.12
9419;BME280;4748;50.802;7.132;2023-06-14T05:43:09;100874.13;;;21.10;79.04
9419;BME280;4748;50.802;7.132;2023-06-14T05:45:34;100877.72;;;21.39;76.16
9419;BME280;4748;50.802;7.132;2023-06-14T05:47:59;100881.31;;;21.68;75.42
9419;BME280;4748;50.802;7.132;2023-06-14T05:50:25;100883.13;;;22.05;73.95
9419;BME280;4748;50.802;7.132;2023-06-14T05:52:50;100886.31;;;22.12;69.61
9419;BME280;4748;50.802;7.132;2023-06-14T05:55:16;100888.75;;;22.60;67.52
9419;BME280;4748;50.802;7.132;2023-06-14T05:57:42;100885.81;;;22.57;64.65
9419;BME280;4748;50.802;7.132;2023-06-14T06:00:08;100884.66;;;23.05;64.97
9419;BME280;4748;50.802;7.132;2023-06-14T06:02:40;100887.00;;;23.11;60.68
9419;BME280;4748;50.802;7.132;2023-06-14T06:05:06;100889.03;;;24.01;58.75
9419;BME280;4748;50.802;7.132;2023-06-14T06:07:31;100890.09;;;24.18;59.85
9419;BME280;4748;50.802;7.132;2023-06-14T06:09:57;100893.16;;;24.30;58.24
9419;BME280;4748;50.802;7.132;2023-06-14T06:12:22;100904.66;;;24.45;58.17
9419;BME280;4748;50.802;7.132;2023-06-14T06:14:48;100903.22;;;24.48;55.23
9419;BME280;4748;50.802;7.132;2023-06-14T06:17:13;100896.59;;;24.75;56.98
9419;BME280;4748;50.802;7.132;2023-06-14T06:19:38;100898.00;;;24.73;54.66
9419;BME280;4748;50.802;7.132;2023-06-14T06:22:04;100903.13;;;24.66;55.86
9419;BME280;4748;50.802;7.132;2023-06-14T06:24:31;100897.56;;;24.58;55.95
9419;BME280;4748;50.802;7.132;2023-06-14T06:26:57;100911.16;;;24.49;58.09
9419;BME280;4748;50.802;7.132;2023-06-14T06:29:22;100906.41;;;24.23;57.92
9419;BME280;4748;50.802;7.132;2023-06-14T06:31:48;100904.59;;;24.18;57.22
9419;BME280;4748;50.802;7.132;2023-06-14T06:34:13;100911.88;;;24.10;56.52
9419;BME280;4748;50.802;7.132;2023-06-14T06:36:38;100916.22;;;24.11;57.13
9419;BME280;4748;50.802;7.132;2023-06-14T06:39:04;100907.72;;;24.12;56.45
9419;BME280;4748;50.802;7.132;2023-06-14T06:41:35;100912.50;;;24.07;58.31
9419;BME280;4748;50.802;7.132;2023-06-14T06:44:02;100918.84;;;24.47;55.80
9419;BME280;4748;50.802;7.132;2023-06-14T06:46:28;100932.53;;;24.02;56.20
9419;BME280;4748;50.802;7.132;2023-06-14T06:48:53;100927.41;;;24.14;52.85
9419;BME280;4748;50.802;7.132;2023-06-14T06:51:19;100926.38;;;23.97;54.99
9419;BME280;4748;50.802;7.132;2023-06-14T06:53:52;100930.38;;;24.31;53.17
9419;BME280;4748;50.802;7.132;2023-06-14T06:56:17;100933.25;;;24.66;52.50
9419;BME280;4748;50.802;7.132;2023-06-14T06:58:42;100934.66;;;24.50;53.08
9419;BME280;4748;50.802;7.132;2023-06-14T07:01:08;100930.59;;;24.88;51.83
9419;BME280;4748;50.802;7.132;2023-06-14T07:03:34;100932.44;;;24.79;52.03
9419;BME280;4748;50.802;7.132;2023-06-14T07:06:00;100923.69;;;25.04;51.56
9419;BME280;4748;50.802;7.132;2023-06-14T07:08:26;100925.50;;;25.08;51.66
9419;BME280;4748;50.802;7.132;2023-06-14T07:10:52;100924.38;;;25.44;50.08
9419;BME280;4748;50.802;7.132;2023-06-14T07:13:17;100932.78;;;25.13;49.78
9419;BME280;4748;50.802;7.132;2023-06-14T07:15:43;100930.88;;;25.00;49.21
9419;BME280;4748;50.802;7.132;2023-06-14T07:18:08;100927.38;;;25.21;49.77
9419;BME280;4748;50.802;7.132;2023-06-14T07:20:34;100925.09;;;25.50;48.81
9419;BME280;4748;50.802;7.132;2023-06-14T07:22:59;100923.50;;;25.57;48.31
9419;BME280;4748;50.802;7.132;2023-06-14T07:25:25;100918.34;;;25.56;47.84
9419;BME280;4748;50.802;7.132;2023-06-14T07:27:51;100934.13;;;25.94;47.76
9419;BME280;4748;50.802;7.132;2023-06-14T07:30:16;100926.44;;;25.39;48.61
9419;BME280;4748;50.802;7.132;2023-06-14T07:32:42;100929.50;;;25.37;47.69
9419;BME280;4748;50.802;7.132;2023-06-14T07:35:07;100930.00;;;25.61;47.79
9419;BME280;4748;50.802;7.132;2023-06-14T07:37:33;100928.06;;;25.83;46.41
9419;BME280;4748;50.802;7.132;2023-06-14T07:39:58;100930.00;;;25.61;46.67
9419;BME280;4748;50.802;7.132;2023-06-14T07:42:23;100923.63;;;25.52;46.33
9419;BME280;4748;50.802;7.132;2023-06-14T07:44:49;100933.09;;;25.24;44.76
9419;BME280;4748;50.802;7.132;2023-06-14T07:47:16;100926.84;;;25.32;43.95
9419;BME280;4748;50.802;7.132;2023-06-14T07:49:41;100922.53;;;25.75;45.24
9419;BME280;4748;50.802;7.132;2023-06-14T07:52:06;100922.25;;;26.07;43.40
9419;BME280;4748;50.802;7.132;2023-06-14T07:54:32;100917.03;;;25.97;42.83
9419;BME280;4748;50.802;7.132;2023-06-14T07:56:58;100924.00;;;26.03;42.02
9419;BME280;4748;50.802;7.132;2023-06-14T07:59:25;100918.34;;;25.99;43.93
9419;BME280;4748;50.802;7.132;2023-06-14T08:01:51;100918.78;;;25.93;43.18
9419;BME280;4748;50.802;7.132;2023-06-14T08:04:16;100928.09;;;26.35;42.07
9419;BME280;4748;50.802;7.132;2023-06-14T08:06:42;100927.00;;;26.45;42.25
9419;BME280;4748;50.802;7.132;2023-06-14T08:09:12;100928.41;;;26.34;40.57
9419;BME280;4748;50.802;7.132;2023-06-14T08:11:38;100925.91;;;26.63;40.88
9419;BME280;4748;50.802;7.132;2023-06-14T08:14:03;100920.66;;;26.83;41.17
9419;BME280;4748;50.802;7.132;2023-06-14T08:16:29;100920.81;;;26.86;41.36
9419;BME280;4748;50.802;7.132;2023-06-14T08:18:55;100918.53;;;26.72;40.51
9419;BME280;4748;50.802;7.132;2023-06-14T08:21:20;100925.81;;;26.76;41.35
9419;BME280;4748;50.802;7.132;2023-06-14T08:23:46;100921.31;;;26.80;41.55
9419;BME280;4748;50.802;7.132;2023-06-14T08:26:11;100919.50;;;26.84;40.71
9419;BME280;4748;50.802;7.132;2023-06-14T08:28:36;100912.22;;;26.79;41.07
9419;BME280;4748;50.802;7.132;2023-06-14T08:31:02;100915.06;;;26.96;39.72
9419;BME280;4748;50.802;7.132;2023-06-14T08:33:27;100911.19;;;27.06;40.47
9419;BME280;4748;50.802;7.132;2023-06-14T08:35:53;100914.59;;;27.20;39.38
9419;BME280;4748;50.802;7.132;2023-06-14T08:38:18;100926.03;;;26.96;38.79
9419;BME280;4748;50.802;7.132;2023-06-14T08:40:45;100924.31;;;26.62;38.21
9419;BME280;4748;50.802;7.132;2023-06-14T08:43:13;100912.94;;;26.93;39.34
9419;BME280;4748;50.802;7.132;2023-06-14T08:45:38;100918.13;;;26.95;38.29
9419;BME280;4748;50.802;7.132;2023-06-14T08:48:04;100915.22;;;26.91;38.47
9419;BME280;4748;50.802;7.132;2023-06-14T08:50:31;100911.44;;;26.87;38.53
9419;BME280;4748;50.802;7.132;2023-06-14T08:52:58;100917.69;;;27.10;38.04
9419;BME280;4748;50.802;7.132;2023-06-14T08:55:27;100904.66;;;26.85;37.85
9419;BME280;4748;50.802;7.132;2023-06-14T08:57:54;100906.69;;;27.60;37.44
9419;BME280;4748;50.802;7.132;2023-06-14T09:00:20;100915.88;;;27.81;36.95
9419;BME280;4748;50.802;7.132;2023-06-14T09:02:46;100910.69;;;27.88;36.74
9419;BME280;4748;50.802;7.132;2023-06-14T09:05:15;100911.72;;;27.58;35.97
9419;BME280;4748;50.802;7.132;2023-06-14T09:07:44;100910.06;;;27.74;37.50
9419;BME280;4748;50.802;7.132;2023-06-14T09:10:12;100896.56;;;28.06;36.59
9419;BME280;4748;50.802;7.132;2023-06-14T09:12:38;100912.00;;;27.82;36.04
9419;BME280;4748;50.802;7.132;2023-06-14T09:15:08;100906.34;;;27.70;36.71
9419;BME280;4748;50.802;7.132;2023-06-14T09:17:35;100909.09;;;27.78;36.95
9419;BME280;4748;50.802;7.132;2023-06-14T09:20:05;100913.91;;;27.90;35.92
9419;BME280;4748;50.802;7.132;2023-06-14T09:22:32;100916.06;;;27.26;37.58
9419;BME280;4748;50.802;7.132;2023-06-14T09:24:58;100907.16;;;27.45;36.79
9419;BME280;4748;50.802;7.132;2023-06-14T09:27:26;100913.28;;;27.76;37.07
9419;BME280;4748;50.802;7.132;2023-06-14T09:29:55;100907.75;;;27.93;36.84
9419;BME280;4748;50.802;7.132;2023-06-14T09:32:24;100906.41;;;28.07;36.48
9419;BME280;4748;50.802;7.132;2023-06-14T09:34:50;100912.94;;;28.48;36.49
9419;BME280;4748;50.802;7.132;2023-06-14T09:39:54;100916.03;;;27.76;36.72
9419;BME280;4748;50.802;7.132;2023-06-14T09:42:20;100912.69;;;27.62;37.06
9419;BME280;4748;50.802;7.132;2023-06-14T09:44:49;100918.50;;;27.69;36.11
9419;BME280;4748;50.802;7.132;2023-06-14T09:47:15;100914.13;;;27.51;37.29
9419;BME280;4748;50.802;7.132;2023-06-14T09:49:41;100916.97;;;28.05;37.16
9419;BME280;4748;50.802;7.132;2023-06-14T09:52:10;100916.16;;;28.05;36.44
9419;BME280;4748;50.802;7.132;2023-06-14T09:54:41;100911.13;;;28.15;35.27
9419;BME280;4748;50.802;7.132;2023-06-14T09:57:11;100906.09;;;28.09;36.68
9419;BME280;4748;50.802;7.132;2023-06-14T09:59:40;100911.88;;;28.32;36.04
9419;BME280;4748;50.802;7.132;2023-06-14T10:05:04;100911.25;;;28.27;36.62
9419;BME280;4748;50.802;7.132;2023-06-14T10:07:40;100907.59;;;28.15;35.29
9419;BME280;4748;50.802;7.132;2023-06-14T10:10:08;100900.84;;;27.62;36.10
9419;BME280;4748;50.802;7.132;2023-06-14T10:12:33;100908.91;;;27.92;36.15
9419;BME280;4748;50.802;7.132;2023-06-14T10:14:59;100918.75;;;28.01;35.70
9419;BME280;4748;50.802;7.132;2023-06-14T10:23:02;100906.50;;;27.82;35.18
9419;BME280;4748;50.802;7.132;2023-06-14T10:25:29;100904.09;;;27.47;36.20
9419;BME280;4748;50.802;7.132;2023-06-14T10:30:39;100902.31;;;27.42;35.86
9419;BME280;4748;50.802;7.132;2023-06-14T10:33:06;100902.94;;;27.65;36.75
9419;BME280;4748;50.802;7.132;2023-06-14T10:35:32;100889.66;;;27.83;35.79
9419;BME280;4748;50.802;7.132;2023-06-14T10:38:12;100904.69;;;27.86;35.76
9419;BME280;4748;50.802;7.132;2023-06-14T10:40:38;100907.31;;;27.74;36.25
9419;BME280;4748;50.802;7.132;2023-06-14T10:43:22;100902.47;;;27.46;35.89
9419;BME280;4748;50.802;7.132;2023-06-14T10:46:17;100904.09;;;27.72;35.67
9419;BME280;4748;50.802;7.132;2023-06-14T10:48:44;100900.75;;;28.21;36.10
9419;BME280;4748;50.802;7.132;2023-06-14T10:51:19;100896.09;;;27.96;35.90
9419;BME280;4748;50.802;7.132;2023-06-14T10:53:50;100899.63;;;28.05;35.84
9419;BME280;4748;50.802;7.132;2023-06-14T10:56:24;100899.38;;;27.47;35.32
9419;BME280;4748;50.802;7.132;2023-06-14T10:58:51;100907.66;;;27.73;35.95
9419;BME280;4748;50.802;7.132;2023-06-14T11:01:32;100895.66;;;27.10;35.83
9419;BME280;4748;50.802;7.132;2023-06-14T11:04:07;100902.78;;;27.44;35.89
9419;BME280;4748;50.802;7.132;2023-06-14T11:06:45;100892.44;;;27.75;36.27
9419;BME280;4748;50.802;7.132;2023-06-14T11:11:48;100887.91;;;27.12;36.67
9419;BME280;4748;50.802;7.132;2023-06-14T11:14:16;100896.81;;;27.26;37.48
9419;BME280;4748;50.802;7.132;2023-06-14T11:16:48;100898.25;;;27.15;37.69
9419;BME280;4748;50.802;7.132;2023-06-14T11:19:13;100886.25;;;27.11;37.90
9419;BME280;4748;50.802;7.132;2023-06-14T11:21:41;100889.03;;;27.61;37.30
9419;BME280;4748;50.802;7.132;2023-06-14T11:24:10;100891.78;;;27.78;37.36
9419;BME280;4748;50.802;7.132;2023-06-14T11:26:37;100881.50;;;28.12;36.98
9419;BME280;4748;50.802;7.132;2023-06-14T11:29:03;100878.66;;;27.50;37.60
9419;BME280;4748;50.802;7.132;2023-06-14T11:31:29;100883.53;;;27.44;37.40
9419;BME280;4748;50.802;7.132;2023-06-14T11:33:55;100899.53;;;27.09;38.36
9419;BME280;4748;50.802;7.132;2023-06-14T11:36:22;100886.75;;;26.96;38.68
9419;BME280;4748;50.802;7.132;2023-06-14T11:38:48;100881.59;;;27.20;38.40
9419;BME280;4748;50.802;7.132;2023-06-14T11:41:13;100881.25;;;27.38;39.21
9419;BME280;4748;50.802;7.132;2023-06-14T11:43:39;100886.44;;;27.14;38.62
9419;BME280;4748;50.802;7.132;2023-06-14T11:46:12;100879.47;;;27.50;38.58
9419;BME280;4748;50.802;7.132;2023-06-14T11:48:42;100888.03;;;27.40;37.92
9419;BME280;4748;50.802;7.132;2023-06-14T11:51:07;100886.28;;;27.53;37.65
9419;BME280;4748;50.802;7.132;2023-06-14T11:53:33;100887.91;;;27.71;37.31
9419;BME280;4748;50.802;7.132;2023-06-14T11:55:59;100877.84;;;27.66;36.47
9419;BME280;4748;50.802;7.132;2023-06-14T11:58:25;100893.09;;;27.64;37.00
9419;BME280;4748;50.802;7.132;2023-06-14T12:00:53;100897.13;;;27.66;36.74
9419;BME280;4748;50.802;7.132;2023-06-14T12:03:23;100885.00;;;27.59;36.79
9419;BME280;4748;50.802;7.132;2023-06-14T12:05:49;100889.34;;;27.68;36.80
9419;BME280;4748;50.802;7.132;2023-06-14T12:08:15;100903.41;;;27.83;37.02
9419;BME280;4748;50.802;7.132;2023-06-14T12:10:42;100899.56;;;27.26;36.83
9419;BME280;4748;50.802;7.132;2023-06-14T12:13:10;100898.72;;;27.00;36.28
9419;BME280;4748;50.802;7.132;2023-06-14T12:15:36;100903.91;;;27.26;36.51
9419;BME280;4748;50.802;7.132;2023-06-14T12:18:05;100895.97;;;27.00;36.07
9419;BME280;4748;50.802;7.132;2023-06-14T12:20:31;100903.41;;;27.08;36.83
9419;BME280;4748;50.802;7.132;2023-06-14T12:22:59;100898.41;;;27.26;36.85
9419;BME280;4748;50.802;7.132;2023-06-14T12:25:37;100901.19;;;27.18;36.74
9419;BME280;4748;50.802;7.132;2023-06-14T12:28:07;100897.78;;;27.29;36.47
9419;BME280;4748;50.802;7.132;2023-06-14T12:30:33;100895.31;;;27.36;36.60
9419;BME280;4748;50.802;7.132;2023-06-14T12:32:58;100906.91;;;26.83;37.21
9419;BME280;4748;50.802;7.132;2023-06-14T12:35:24;100898.72;;;26.91;37.31
9419;BME280;4748;50.802;7.132;2023-06-14T12:37:49;100900.19;;;27.14;36.81
9419;BME280;4748;50.802;7.132;2023-06-14T12:40:15;100909.97;;;26.73;37.58
9419;BME280;4748;50.802;7.132;2023-06-14T12:42:41;100904.47;;;26.73;37.42
9419;BME280;4748;50.802;7.132;2023-06-14T12:45:10;100901.56;;;26.78;37.40
9419;BME280;4748;50.802;7.132;2023-06-14T12:47:35;100908.25;;;27.02;37.35
9419;BME280;4748;50.802;7.132;2023-06-14T12:50:01;100910.06;;;27.24;36.58
9419;BME280;4748;50.802;7.132;2023-06-14T12:52:27;100907.47;;;27.10;36.36
9419;BME280;4748;50.802;7.132;2023-06-14T12:54:53;100911.66;;;27.08;36.68
9419;BME280;4748;50.802;7.132;2023-06-14T12:57:19;100912.31;;;27.13;37.28
9419;BME280;4748;50.802;7.132;2023-06-14T12:59:45;100905.88;;;27.34;37.82
9419;BME280;4748;50.802;7.132;2023-06-14T13:02:16;100919.75;;;26.96;38.56
9419;BME280;4748;50.802;7.132;2023-06-14T13:04:42;100906.75;;;26.88;37.51
9419;BME280;4748;50.802;7.132;2023-06-14T13:07:08;100920.56;;;27.05;37.59
9419;BME280;4748;50.802;7.132;2023-06-14T13:09:38;100905.19;;;27.12;37.21
9419;BME280;4748;50.802;7.132;2023-06-14T13:12:06;100913.63;;;27.16;37.28
9419;BME280;4748;50.802;7.132;2023-06-14T13:14:32;100904.56;;;27.24;37.80
9419;BME280;4748;50.802;7.132;2023-06-14T13:16:57;100917.88;;;26.74;38.13
9419;BME280;4748;50.802;7.132;2023-06-14T13:19:23;100912.00;;;27.15;37.88
9419;BME280;4748;50.802;7.132;2023-06-14T13:21:49;100913.44;;;27.04;37.74
9419;BME280;4748;50.802;7.132;2023-06-14T13:24:14;100923.63;;;26.95;37.58
9419;BME280;4748;50.802;7.132;2023-06-14T13:26:43;100927.81;;;27.01;37.29
9419;BME280;4748;50.802;7.132;2023-06-14T13:29:10;100922.84;;;27.11;36.88
9419;BME280;4748;50.802;7.132;2023-06-14T13:31:36;100905.53;;;27.11;37.25
9419;BME280;4748;50.802;7.132;2023-06-14T13:34:02;100919.00;;;27.54;37.24
9419;BME280;4748;50.802;7.132;2023-06-14T13:36:27;100925.59;;;27.36;37.43
9419;BME280;4748;50.802;7.132;2023-06-14T13:38:53;100935.47;;;27.29;37.21
9419;BME280;4748;50.802;7.132;2023-06-14T13:41:20;100930.63;;;27.43;37.00
9419;BME280;4748;50.802;7.132;2023-06-14T13:43:45;100926.00;;;26.88;37.57
9419;BME280;4748;50.802;7.132;2023-06-14T13:46:10;100917.69;;;26.63;38.61
9419;BME280;4748;50.802;7.132;2023-06-14T13:48:36;100928.69;;;26.71;38.58
9419;BME280;4748;50.802;7.132;2023-06-14T13:51:01;100923.50;;;26.61;38.10
9419;BME280;4748;50.802;7.132;2023-06-14T13:53:29;100935.50;;;26.73;38.48
9419;BME280;4748;50.802;7.132;2023-06-14T13:55:54;100937.44;;;26.34;38.45
9419;BME280;4748;50.802;7.132;2023-06-14T13:58:20;100927.72;;;26.67;37.92
9419;BME280;4748;50.802;7.132;2023-06-14T14:00:45;100935.03;;;26.72;38.66
9419;BME280;4748;50.802;7.132;2023-06-14T14:03:10;100926.09;;;27.22;37.66
9419;BME280;4748;50.802;7.132;2023-06-14T14:05:36;100917.34;;;27.45;37.17
9419;BME280;4748;50.802;7.132;2023-06-14T14:08:02;100927.88;;;27.43;37.17
9419;BME280;4748;50.802;7.132;2023-06-14T14:10:27;100927.22;;;27.37;37.13
9419;BME280;4748;50.802;7.132;2023-06-14T14:12:52;100911.19;;;27.48;37.29
9419;BME280;4748;50.802;7.132;2023-06-14T14:15:19;100912.19;;;27.18;37.74
9419;BME280;4748;50.802;7.132;2023-06-14T14:17:45;100912.19;;;27.18;37.79
9419;BME280;4748;50.802;7.132;2023-06-14T14:20:11;100912.38;;;27.55;37.36
9419;BME280;4748;50.802;7.132;2023-06-14T14:22:44;100912.16;;;27.85;37.03
9419;BME280;4748;50.802;7.132;2023-06-14T14:25:10;100905.22;;;27.46;37.76
9419;BME280;4748;50.802;7.132;2023-06-14T14:27:36;100923.97;;;27.19;37.68
9419;BME280;4748;50.802;7.132;2023-06-14T14:30:03;100916.53;;;26.55;38.56
9419;BME280;4748;50.802;7.132;2023-06-14T14:32:28;100918.75;;;26.45;38.81
9419;BME280;4748;50.802;7.132;2023-06-14T14:34:54;100915.53;;;26.51;38.28
9419;BME280;4748;50.802;7.132;2023-06-14T14:37:19;100914.53;;;26.39;38.68
9419;BME280;4748;50.802;7.132;2023-06-14T14:39:45;100925.56;;;26.56;38.34
9419;BME280;4748;50.802;7.132;2023-06-14T14:42:10;100913.50;;;26.65;38.49
9419;BME280;4748;50.802;7.132;2023-06-14T14:44:38;100917.47;;;26.51;38.54
9419;BME280;4748;50.802;7.132;2023-06-14T14:47:03;100917.84;;;26.58;38.84
9419;BME280;4748;50.802;7.132;2023-06-14T14:49:30;100919.28;;;26.55;37.96
9419;BME280;4748;50.802;7.132;2023-06-14T14:51:56;100923.72;;;26.73;37.96
9419;BME280;4748;50.802;7.132;2023-06-14T14:54:21;100912.97;;;27.02;37.61
9419;BME280;4748;50.802;7.132;2023-06-14T14:56:47;100922.22;;;27.23;37.20
9419;BME280;4748;50.802;7.132;2023-06-14T14:59:12;100910.72;;;27.29;37.15
9419;BME280;4748;50.802;7.132;2023-06-14T15:01:37;100912.69;;;27.54;37.22
9419;BME280;4748;50.802;7.132;2023-06-14T15:04:03;100918.34;;;27.57;37.12
9419;BME280;4748;50.802;7.132;2023-06-14T15:06:28;100911.19;;;27.73;36.95
9419;BME280;4748;50.802;7.132;2023-06-14T15:08:54;100918.00;;;27.76;36.83
9419;BME280;4748;50.802;7.132;2023-06-14T15:11:19;100913.47;;;27.71;36.89
9419;BME280;4748;50.802;7.132;2023-06-14T15:13:45;100920.63;;;27.64;36.94
9419;BME280;4748;50.802;7.132;2023-06-14T15:16:10;100921.09;;;27.74;36.20
9419;BME280;4748;50.802;7.132;2023-06-14T15:18:35;100920.75;;;27.50;37.32
9419;BME280;4748;50.802;7.132;2023-06-14T15:21:01;100927.22;;;27.37;37.86
9419;BME280;4748;50.802;7.132;2023-06-14T15:23:26;100926.75;;;27.27;37.07
9419;BME280;4748;50.802;7.132;2023-06-14T15:25:51;100924.97;;;27.31;37.00
9419;BME280;4748;50.802;7.132;2023-06-14T15:28:17;100920.22;;;27.99;36.68
9419;BME280;4748;50.802;7.132;2023-06-14T15:30:42;100929.13;;;28.13;36.36
9419;BME280;4748;50.802;7.132;2023-06-14T15:33:08;100928.72;;;28.68;36.40
9419;BME280;4748;50.802;7.132;2023-06-14T15:35:33;100932.16;;;28.65;35.77
9419;BME280;4748;50.802;7.132;2023-06-14T15:37:58;100916.53;;;29.06;35.21
9419;BME280;4748;50.802;7.132;2023-06-14T15:40:24;100931.84;;;28.58;35.68
9419;BME280;4748;50.802;7.132;2023-06-14T15:42:51;100930.56;;;28.64;36.06
9419;BME280;4748;50.802;7.132;2023-06-14T15:45:16;100922.41;;;28.39;36.12
9419;BME280;4748;50.802;7.132;2023-06-14T15:47:41;100921.94;;;28.29;35.28
9419;BME280;4748;50.802;7.132;2023-06-14T15:50:07;100933.03;;;27.95;36.84
9419;BME280;4748;50.802;7.132;2023-06-14T15:52:33;100921.31;;;28.32;36.04
9419;BME280;4748;50.802;7.132;2023-06-14T15:54:58;100917.34;;;27.87;36.97
9419;BME280;4748;50.802;7.132;2023-06-14T15:57:24;100917.22;;;27.67;37.10
9419;BME280;4748;50.802;7.132;2023-06-14T15:59:49;100915.41;;;27.28;37.19
9419;BME280;4748;50.802;7.132;2023-06-14T16:02:15;100920.50;;;26.88;37.70
9419;BME280;4748;50.802;7.132;2023-06-14T16:04:40;100923.66;;;26.56;38.39
9419;BME280;4748;50.802;7.132;2023-06-14T16:07:05;100917.97;;;27.00;37.66
9419;BME280;4748;50.802;7.132;2023-06-14T16:09:31;100915.31;;;26.86;37.49
9419;BME280;4748;50.802;7.132;2023-06-14T16:11:56;100924.81;;;27.70;36.99
9419;BME280;4748;50.802;7.132;2023-06-14T16:14:22;100922.03;;;27.95;36.55
9419;BME280;4748;50.802;7.132;2023-06-14T16:16:47;100924.91;;;28.07;35.47
9419;BME280;4748;50.802;7.132;2023-06-14T16:19:13;100916.16;;;28.05;36.51
9419;BME280;4748;50.802;7.132;2023-06-14T16:21:38;100917.69;;;27.77;36.75
9419;BME280;4748;50.802;7.132;2023-06-14T16:24:04;100919.78;;;27.29;37.01
9419;BME280;4748;50.802;7.132;2023-06-14T16:26:29;100915.22;;;27.17;37.11
9419;BME280;4748;50.802;7.132;2023-06-14T16:28:55;100917.84;;;27.80;36.39
9419;BME280;4748;50.802;7.132;2023-06-14T16:31:20;100914.84;;;28.19;36.19
9419;BME280;4748;50.802;7.132;2023-06-14T16:33:47;100928.22;;;28.83;34.39
9419;BME280;4748;50.802;7.132;2023-06-14T16:36:12;100915.94;;;28.64;34.72
9419;BME280;4748;50.802;7.132;2023-06-14T16:38:38;100920.56;;;28.88;35.91
9419;BME280;4748;50.802;7.132;2023-06-14T16:41:04;100914.38;;;29.12;35.65
9419;BME280;4748;50.802;7.132;2023-06-14T16:43:32;100917.06;;;29.00;34.69
9419;BME280;4748;50.802;7.132;2023-06-14T16:45:58;100908.34;;;29.38;35.03
9419;BME280;4748;50.802;7.132;2023-06-14T16:48:23;100920.50;;;28.97;35.34
9419;BME280;4748;50.802;7.132;2023-06-14T16:50:48;100920.31;;;28.65;35.38
9419;BME280;4748;50.802;7.132;2023-06-14T16:53:14;100920.03;;;28.21;35.82